sensor_id;sensor_type;location;lat;lon;timestamp;pressure;altitude;pressure_sealevel;temperature;humidity
75536;BME280;64119;52.070;20.804;2023-05-07T00:01:29;101011.27;;;5.61;90.43
75536;BME280;64119;52.070;20.804;2023-05-07T00:03:57;101013.63;;;5.58;90.39
75536;BME280;64119;52.070;20.804;2023-05-07T00:06:25;101014.54;;;5.58;90.47
75536;BME280;64119;52.070;20.804;2023-05-07T00:08:54;101012.54;;;5.55;90.21
75536;BME280;64119;52.070;20.804;2023-05-07T00:11:22;101014.37;;;5.52;90.69
75536;BME280;64119;52.070;20.804;2023-05-07T00:13:50;101013.09;;;5.53;90.69
75536;BME280;64119;52.070;20.804;2023-05-07T00:16:17;101012.23;;;5.53;90.14
75536;BME280;64119;52.070;20.804;2023-05-07T00:18:45;101007.59;;;5.50;89.87
75536;BME280;64119;52.070;20.804;2023-05-07T00:21:13;101010.30;;;5.49;89.86
75536;BME280;64119;52.070;20.804;2023-05-07T00:23:41;101011.98;;;5.46;90.93
75536;BME280;64119;52.070;20.804;2023-05-07T00:26:09;101010.38;;;5.48;90.03
75536;BME280;64119;52.070;20.804;2023-05-07T00:28:37;101013.52;;;5.47;90.06
75536;BME280;64119;52.070;20.804;2023-05-07T00:31:05;101012.42;;;5.43;90.71
75536;BME280;64119;52.070;20.804;2023-05-07T00:33:33;101016.20;;;5.42;90.65
75536;BME280;64119;52.070;20.804;2023-05-07T00:36:01;101016.12;;;5.41;90.26
75536;BME280;64119;52.070;20.804;2023-05-07T00:38:29;101015.63;;;5.39;91.34
75536;BME280;64119;52.070;20.804;2023-05-07T00:40:57;101017.27;;;5.38;91.02
75536;BME280;64119;52.070;20.804;2023-05-07T00:43:25;101020.27;;;5.40;90.62
75536;BME280;64119;52.070;20.804;2023-05-07T00:45:53;101025.73;;;5.40;90.63
75536;BME280;64119;52.070;20.804;2023-05-07T00:48:21;101025.81;;;5.34;91.79
75536;BME280;64119;52.070;20.804;2023-05-07T00:50:49;101025.87;;;5.34;90.55
75536;BME280;64119;52.070;20.804;2023-05-07T00:53:17;101031.18;;;5.35;90.78
75536;BME280;64119;52.070;20.804;2023-05-07T00:55:45;101031.27;;;5.32;91.33
75536;BME280;64119;52.070;20.804;2023-05-07T00:58:13;101032.23;;;5.33;90.51
75536;BME280;64119;52.070;20.804;2023-05-07T01:00:40;101033.59;;;5.30;92.06
75536;BME280;64119;52.070;20.804;2023-05-07T01:03:08;101026.76;;;5.30;91.10
75536;BME280;64119;52.070;20.804;2023-05-07T01:05:38;101031.02;;;5.29;92.27
75536;BME280;64119;52.070;20.804;2023-05-07T01:08:06;101028.98;;;5.28;91.83
75536;BME280;64119;52.070;20.804;2023-05-07T01:10:34;101028.25;;;5.29;91.70
75536;BME280;64119;52.070;20.804;2023-05-07T01:13:02;101027.89;;;5.29;91.12
75536;BME280;64119;52.070;20.804;2023-05-07T01:15:30;101029.41;;;5.28;91.92
75536;BME280;64119;52.070;20.804;2023-05-07T01:17:58;101033.04;;;5.26;92.58
75536;BME280;64119;52.070;20.804;2023-05-07T01:20:31;101034.42;;;5.27;92.72
75536;BME280;64119;52.070;20.804;2023-05-07T01:23:00;101039.14;;;5.27;91.99
75536;BME280;64119;52.070;20.804;2023-05-07T01:25:28;101042.17;;;5.26;93.14
75536;BME280;64119;52.070;20.804;2023-05-07T01:27:58;101042.77;;;5.27;92.55
75536;BME280;64119;52.070;20.804;2023-05-07T01:30:29;101040.55;;;5.29;90.89
75536;BME280;64119;52.070;20.804;2023-05-07T01:35:32;101043.75;;;5.30;91.04
75536;BME280;64119;52.070;20.804;2023-05-07T01:38:01;101043.73;;;5.28;92.33
75536;BME280;64119;52.070;20.804;2023-05-07T01:40:32;101041.09;;;5.28;91.63
75536;BME280;64119;52.070;20.804;2023-05-07T01:43:04;101042.09;;;5.29;93.17
75536;BME280;64119;52.070;20.804;2023-05-07T01:45:34;101043.42;;;5.30;92.10
75536;BME280;64119;52.070;20.804;2023-05-07T01:48:03;101039.30;;;5.29;93.40
75536;BME280;64119;52.070;20.804;2023-05-07T01:50:32;101038.99;;;5.28;92.65
75536;BME280;64119;52.070;20.804;2023-05-07T01:53:01;101039.77;;;5.29;92.08
75536;BME280;64119;52.070;20.804;2023-05-07T01:55:29;101039.77;;;5.30;92.39
75536;BME280;64119;52.070;20.804;2023-05-07T01:57:57;101043.17;;;5.27;93.47
75536;BME280;64119;52.070;20.804;2023-05-07T02:00:25;101043.89;;;5.27;93.01
75536;BME280;64119;52.070;20.804;2023-05-07T02:02:53;101042.52;;;5.26;92.72
75536;BME280;64119;52.070;20.804;2023-05-07T02:05:26;101040.76;;;5.26;92.12
75536;BME280;64119;52.070;20.804;2023-05-07T02:08:06;101042.78;;;5.27;91.83
75536;BME280;64119;52.070;20.804;2023-05-07T02:10:35;101043.92;;;5.26;92.64
75536;BME280;64119;52.070;20.804;2023-05-07T02:13:05;101046.27;;;5.26;92.38
75536;BME280;64119;52.070;20.804;2023-05-07T02:15:33;101043.53;;;5.25;91.70
75536;BME280;64119;52.070;20.804;2023-05-07T02:18:05;101042.08;;;5.23;92.03
75536;BME280;64119;52.070;20.804;2023-05-07T02:20:34;101043.94;;;5.22;92.58
75536;BME280;64119;52.070;20.804;2023-05-07T02:23:02;101044.88;;;5.19;92.85
75536;BME280;64119;52.070;20.804;2023-05-07T02:25:30;101051.54;;;5.20;92.08
75536;BME280;64119;52.070;20.804;2023-05-07T02:27:58;101052.44;;;5.20;91.76
75536;BME280;64119;52.070;20.804;2023-05-07T02:30:38;101054.33;;;5.20;92.48
75536;BME280;64119;52.070;20.804;2023-05-07T02:33:07;101057.47;;;5.18;92.87
75536;BME280;64119;52.070;20.804;2023-05-07T02:35:36;101056.65;;;5.18;92.59
75536;BME280;64119;52.070;20.804;2023-05-07T02:38:04;101060.13;;;5.18;92.81
75536;BME280;64119;52.070;20.804;2023-05-07T02:40:32;101061.38;;;5.17;92.71
75536;BME280;64119;52.070;20.804;2023-05-07T02:43:06;101060.35;;;5.17;92.19
75536;BME280;64119;52.070;20.804;2023-05-07T02:45:34;101061.39;;;5.19;92.49
75536;BME280;64119;52.070;20.804;2023-05-07T02:48:03;101065.17;;;5.20;92.42
75536;BME280;64119;52.070;20.804;2023-05-07T02:50:31;101059.23;;;5.20;92.59
75536;BME280;64119;52.070;20.804;2023-05-07T02:53:00;101060.41;;;5.20;92.40
75536;BME280;64119;52.070;20.804;2023-05-07T02:55:28;101059.45;;;5.22;92.17
75536;BME280;64119;52.070;20.804;2023-05-07T02:57:56;101059.76;;;5.22;92.10
75536;BME280;64119;52.070;20.804;2023-05-07T03:00:24;101063.29;;;5.20;92.09
75536;BME280;64119;52.070;20.804;2023-05-07T03:03:15;101066.27;;;5.21;92.96
75536;BME280;64119;52.070;20.804;2023-05-07T03:05:43;101069.27;;;5.21;91.99
75536;BME280;64119;52.070;20.804;2023-05-07T03:08:10;101070.83;;;5.22;92.79
75536;BME280;64119;52.070;20.804;2023-05-07T03:10:38;101073.92;;;5.22;91.98
75536;BME280;64119;52.070;20.804;2023-05-07T03:13:06;101071.77;;;5.21;93.98
75536;BME280;64119;52.070;20.804;2023-05-07T03:15:34;101072.05;;;5.20;93.71
75536;BME280;64119;52.070;20.804;2023-05-07T03:18:02;101074.44;;;5.22;92.35
75536;BME280;64119;52.070;20.804;2023-05-07T03:20:30;101075.31;;;5.24;91.80
75536;BME280;64119;52.070;20.804;2023-05-07T03:22:59;101081.33;;;5.26;92.06
75536;BME280;64119;52.070;20.804;2023-05-07T03:25:27;101080.08;;;5.24;92.73
75536;BME280;64119;52.070;20.804;2023-05-07T03:27:56;101085.95;;;5.27;92.06
75536;BME280;64119;52.070;20.804;2023-05-07T03:30:27;101082.98;;;5.25;92.03
75536;BME280;64119;52.070;20.804;2023-05-07T03:32:55;101085.81;;;5.27;92.42
75536;BME280;64119;52.070;20.804;2023-05-07T03:35:23;101090.55;;;5.28;91.57
75536;BME280;64119;52.070;20.804;2023-05-07T03:37:51;101092.66;;;5.27;92.07
75536;BME280;64119;52.070;20.804;2023-05-07T03:40:20;101095.34;;;5.26;91.61
75536;BME280;64119;52.070;20.804;2023-05-07T03:42:50;101101.09;;;5.26;92.72
75536;BME280;64119;52.070;20.804;2023-05-07T03:45:19;101099.61;;;5.25;93.06
75536;BME280;64119;52.070;20.804;2023-05-07T03:47:52;101104.76;;;5.29;91.65
75536;BME280;64119;52.070;20.804;2023-05-07T03:50:21;101107.64;;;5.28;92.13
75536;BME280;64119;52.070;20.804;2023-05-07T03:52:49;101109.13;;;5.28;92.02
75536;BME280;64119;52.070;20.804;2023-05-07T03:55:18;101113.61;;;5.29;91.82
75536;BME280;64119;52.070;20.804;2023-05-07T03:57:50;101116.95;;;5.29;92.81
75536;BME280;64119;52.070;20.804;2023-05-07T04:00:19;101118.38;;;5.31;92.37
75536;BME280;64119;52.070;20.804;2023-05-07T04:02:47;101119.61;;;5.31;91.58
75536;BME280;64119;52.070;20.804;2023-05-07T04:05:19;101124.16;;;5.31;92.05
75536;BME280;64119;52.070;20.804;2023-05-07T04:07:49;101121.70;;;5.31;92.43
75536;BME280;64119;52.070;20.804;2023-05-07T04:10:19;101125.60;;;5.28;92.43
75536;BME280;64119;52.070;20.804;2023-05-07T04:12:48;101129.76;;;5.31;92.08
75536;BME280;64119;52.070;20.804;2023-05-07T04:15:19;101129.12;;;5.30;91.46
75536;BME280;64119;52.070;20.804;2023-05-07T04:17:47;101135.33;;;5.30;91.58
75536;BME280;64119;52.070;20.804;2023-05-07T04:20:16;101135.39;;;5.29;92.68
75536;BME280;64119;52.070;20.804;2023-05-07T04:22:47;101134.48;;;5.29;92.18
75536;BME280;64119;52.070;20.804;2023-05-07T04:25:16;101139.04;;;5.29;93.46
75536;BME280;64119;52.070;20.804;2023-05-07T04:27:44;101140.86;;;5.30;92.88
75536;BME280;64119;52.070;20.804;2023-05-07T04:30:12;101143.90;;;5.32;92.29
75536;BME280;64119;52.070;20.804;2023-05-07T04:32:41;101149.80;;;5.35;92.25
75536;BME280;64119;52.070;20.804;2023-05-07T04:35:09;101155.17;;;5.36;93.14
75536;BME280;64119;52.070;20.804;2023-05-07T04:37:38;101155.27;;;5.36;92.51
75536;BME280;64119;52.070;20.804;2023-05-07T04:40:06;101157.17;;;5.37;92.27
75536;BME280;64119;52.070;20.804;2023-05-07T04:42:35;101156.49;;;5.38;91.68
75536;BME280;64119;52.070;20.804;2023-05-07T04:45:04;101158.17;;;5.40;91.89
75536;BME280;64119;52.070;20.804;2023-05-07T04:47:33;101164.05;;;5.40;92.22
75536;BME280;64119;52.070;20.804;2023-05-07T04:50:01;101164.09;;;5.42;91.56
75536;BME280;64119;52.070;20.804;2023-05-07T04:52:29;101173.52;;;5.42;91.45
75536;BME280;64119;52.070;20.804;2023-05-07T04:54:59;101175.52;;;5.41;91.54
75536;BME280;64119;52.070;20.804;2023-05-07T04:57:27;101179.69;;;5.42;91.57
75536;BME280;64119;52.070;20.804;2023-05-07T04:59:55;101183.25;;;5.43;91.36
75536;BME280;64119;52.070;20.804;2023-05-07T05:02:23;101187.55;;;5.45;91.52
75536;BME280;64119;52.070;20.804;2023-05-07T05:04:51;101189.38;;;5.44;91.81
75536;BME280;64119;52.070;20.804;2023-05-07T05:07:19;101191.25;;;5.46;91.59
75536;BME280;64119;52.070;20.804;2023-05-07T05:09:48;101193.93;;;5.48;92.13
75536;BME280;64119;52.070;20.804;2023-05-07T05:12:15;101197.21;;;5.48;92.29
75536;BME280;64119;52.070;20.804;2023-05-07T05:14:44;101201.27;;;5.52;91.90
75536;BME280;64119;52.070;20.804;2023-05-07T05:17:12;101203.12;;;5.55;91.75
75536;BME280;64119;52.070;20.804;2023-05-07T05:19:41;101204.23;;;5.58;91.37
75536;BME280;64119;52.070;20.804;2023-05-07T05:22:09;101201.86;;;5.59;91.39
75536;BME280;64119;52.070;20.804;2023-05-07T05:24:37;101202.70;;;5.61;91.34
75536;BME280;64119;52.070;20.804;2023-05-07T05:27:05;101208.48;;;5.63;91.36
75536;BME280;64119;52.070;20.804;2023-05-07T05:29:33;101205.83;;;5.66;92.26
75536;BME280;64119;52.070;20.804;2023-05-07T05:32:01;101203.31;;;5.68;92.12
75536;BME280;64119;52.070;20.804;2023-05-07T05:34:29;101208.17;;;5.69;92.65
75536;BME280;64119;52.070;20.804;2023-05-07T05:36:59;101208.47;;;5.73;91.26
75536;BME280;64119;52.070;20.804;2023-05-07T05:39:27;101214.15;;;5.76;91.64
75536;BME280;64119;52.070;20.804;2023-05-07T05:41:55;101213.58;;;5.77;91.90
75536;BME280;64119;52.070;20.804;2023-05-07T05:44:23;101212.11;;;5.79;91.39
75536;BME280;64119;52.070;20.804;2023-05-07T05:46:51;101215.08;;;5.81;91.37
75536;BME280;64119;52.070;20.804;2023-05-07T05:49:19;101220.47;;;5.84;91.45
75536;BME280;64119;52.070;20.804;2023-05-07T05:51:47;101218.05;;;5.86;91.22
75536;BME280;64119;52.070;20.804;2023-05-07T05:54:15;101226.21;;;5.89;91.78
75536;BME280;64119;52.070;20.804;2023-05-07T05:56:43;101222.27;;;5.91;91.61
75536;BME280;64119;52.070;20.804;2023-05-07T05:59:11;101229.34;;;5.93;91.98
75536;BME280;64119;52.070;20.804;2023-05-07T06:01:39;101233.09;;;5.96;92.00
75536;BME280;64119;52.070;20.804;2023-05-07T06:04:07;101232.44;;;5.99;91.64
75536;BME280;64119;52.070;20.804;2023-05-07T06:06:35;101238.00;;;6.06;90.82
75536;BME280;64119;52.070;20.804;2023-05-07T06:09:03;101241.21;;;6.11;91.25
75536;BME280;64119;52.070;20.804;2023-05-07T06:11:36;101239.98;;;6.13;91.49
75536;BME280;64119;52.070;20.804;2023-05-07T06:14:05;101244.09;;;6.18;90.74
75536;BME280;64119;52.070;20.804;2023-05-07T06:16:33;101254.20;;;6.21;90.46
75536;BME280;64119;52.070;20.804;2023-05-07T06:19:01;101253.14;;;6.23;90.30
75536;BME280;64119;52.070;20.804;2023-05-07T06:21:29;101250.63;;;6.25;89.95
75536;BME280;64119;52.070;20.804;2023-05-07T06:23:58;101254.00;;;6.23;90.08
75536;BME280;64119;52.070;20.804;2023-05-07T06:26:26;101249.90;;;6.25;89.91
75536;BME280;64119;52.070;20.804;2023-05-07T06:28:54;101247.66;;;6.27;90.07
75536;BME280;64119;52.070;20.804;2023-05-07T06:31:29;101238.02;;;6.30;89.88
75536;BME280;64119;52.070;20.804;2023-05-07T06:34:02;101237.31;;;6.32;89.71
75536;BME280;64119;52.070;20.804;2023-05-07T06:36:34;101239.21;;;6.40;89.84
75536;BME280;64119;52.070;20.804;2023-05-07T06:39:07;101239.79;;;6.49;89.51
75536;BME280;64119;52.070;20.804;2023-05-07T06:41:38;101237.95;;;6.57;89.53
75536;BME280;64119;52.070;20.804;2023-05-07T06:44:09;101241.17;;;6.66;90.19
75536;BME280;64119;52.070;20.804;2023-05-07T06:46:42;101239.54;;;6.73;89.20
75536;BME280;64119;52.070;20.804;2023-05-07T06:49:10;101243.73;;;6.81;89.20
75536;BME280;64119;52.070;20.804;2023-05-07T06:51:38;101249.60;;;6.89;88.69
75536;BME280;64119;52.070;20.804;2023-05-07T06:54:06;101249.86;;;6.94;88.39
75536;BME280;64119;52.070;20.804;2023-05-07T06:56:36;101250.80;;;7.02;88.06
75536;BME280;64119;52.070;20.804;2023-05-07T06:59:04;101255.46;;;7.07;87.75
75536;BME280;64119;52.070;20.804;2023-05-07T07:01:36;101260.37;;;7.07;87.46
75536;BME280;64119;52.070;20.804;2023-05-07T07:04:04;101264.23;;;7.11;87.42
75536;BME280;64119;52.070;20.804;2023-05-07T07:06:33;101272.80;;;7.14;87.00
75536;BME280;64119;52.070;20.804;2023-05-07T07:09:01;101266.94;;;7.16;86.98
75536;BME280;64119;52.070;20.804;2023-05-07T07:11:30;101272.13;;;7.28;87.19
75536;BME280;64119;52.070;20.804;2023-05-07T07:13:58;101271.15;;;7.44;86.53
75536;BME280;64119;52.070;20.804;2023-05-07T07:16:28;101272.20;;;7.56;86.30
75536;BME280;64119;52.070;20.804;2023-05-07T07:18:56;101273.98;;;7.65;86.09
75536;BME280;64119;52.070;20.804;2023-05-07T07:21:24;101276.84;;;7.72;86.06
75536;BME280;64119;52.070;20.804;2023-05-07T07:23:53;101277.17;;;7.74;85.47
75536;BME280;64119;52.070;20.804;2023-05-07T07:26:21;101279.79;;;7.72;85.80
75536;BME280;64119;52.070;20.804;2023-05-07T07:28:49;101283.04;;;7.68;85.35
75536;BME280;64119;52.070;20.804;2023-05-07T07:31:19;101283.84;;;7.69;84.91
75536;BME280;64119;52.070;20.804;2023-05-07T07:33:47;101286.73;;;7.66;84.65
75536;BME280;64119;52.070;20.804;2023-05-07T07:36:15;101287.59;;;7.65;84.78
75536;BME280;64119;52.070;20.804;2023-05-07T07:38:43;101287.84;;;7.62;84.47
75536;BME280;64119;52.070;20.804;2023-05-07T07:41:12;101284.92;;;7.61;84.82
75536;BME280;64119;52.070;20.804;2023-05-07T07:43:40;101284.16;;;7.60;84.27
75536;BME280;64119;52.070;20.804;2023-05-07T07:46:08;101281.79;;;7.63;84.10
75536;BME280;64119;52.070;20.804;2023-05-07T07:48:36;101284.27;;;7.61;83.98
75536;BME280;64119;52.070;20.804;2023-05-07T07:51:04;101286.39;;;7.61;84.06
75536;BME280;64119;52.070;20.804;2023-05-07T07:53:32;101286.27;;;7.65;84.25
75536;BME280;64119;52.070;20.804;2023-05-07T07:56:00;101289.40;;;7.68;84.39
75536;BME280;64119;52.070;20.804;2023-05-07T07:58:33;101290.88;;;7.67;83.76
75536;BME280;64119;52.070;20.804;2023-05-07T08:01:03;101293.58;;;7.72;84.38
75536;BME280;64119;52.070;20.804;2023-05-07T08:03:31;101296.50;;;7.74;83.93
75536;BME280;64119;52.070;20.804;2023-05-07T08:06:01;101297.02;;;7.74;83.82
75536;BME280;64119;52.070;20.804;2023-05-07T08:08:29;101300.73;;;7.78;83.53
75536;BME280;64119;52.070;20.804;2023-05-07T08:10:57;101298.90;;;7.84;83.29
75536;BME280;64119;52.070;20.804;2023-05-07T08:13:29;101302.57;;;7.86;82.98
75536;BME280;64119;52.070;20.804;2023-05-07T08:15:56;101305.33;;;7.85;83.09
75536;BME280;64119;52.070;20.804;2023-05-07T08:18:25;101303.91;;;7.79;81.22
75536;BME280;64119;52.070;20.804;2023-05-07T08:20:56;101307.27;;;7.85;81.71
75536;BME280;64119;52.070;20.804;2023-05-07T08:23:25;101312.59;;;7.91;82.11
75536;BME280;64119;52.070;20.804;2023-05-07T08:25:54;101310.42;;;8.03;82.30
75536;BME280;64119;52.070;20.804;2023-05-07T08:28:22;101310.08;;;8.12;81.56
75536;BME280;64119;52.070;20.804;2023-05-07T08:30:52;101311.65;;;8.10;80.36
75536;BME280;64119;52.070;20.804;2023-05-07T08:33:20;101316.69;;;8.13;81.31
75536;BME280;64119;52.070;20.804;2023-05-07T08:35:48;101321.95;;;8.08;81.20
75536;BME280;64119;52.070;20.804;2023-05-07T08:38:16;101326.45;;;8.05;81.65
75536;BME280;64119;52.070;20.804;2023-05-07T08:40:44;101326.73;;;8.04;81.04
75536;BME280;64119;52.070;20.804;2023-05-07T08:43:16;101331.56;;;8.01;80.89
75536;BME280;64119;52.070;20.804;2023-05-07T08:45:49;101337.02;;;8.01;81.11
75536;BME280;64119;52.070;20.804;2023-05-07T08:48:22;101336.71;;;8.00;80.55
75536;BME280;64119;52.070;20.804;2023-05-07T08:51:03;101343.17;;;7.99;80.76
75536;BME280;64119;52.070;20.804;2023-05-07T08:53:31;101342.83;;;7.99;80.92
75536;BME280;64119;52.070;20.804;2023-05-07T08:56:00;101350.63;;;7.99;80.76
75536;BME280;64119;52.070;20.804;2023-05-07T08:58:29;101349.63;;;8.00;80.83
75536;BME280;64119;52.070;20.804;2023-05-07T09:00:57;101349.58;;;7.97;80.78
75536;BME280;64119;52.070;20.804;2023-05-07T09:03:26;101351.66;;;7.97;80.54
75536;BME280;64119;52.070;20.804;2023-05-07T09:05:54;101352.52;;;7.99;80.46
75536;BME280;64119;52.070;20.804;2023-05-07T09:08:25;101350.30;;;7.97;79.82
75536;BME280;64119;52.070;20.804;2023-05-07T09:10:53;101352.62;;;7.96;80.42
75536;BME280;64119;52.070;20.804;2023-05-07T09:13:22;101353.39;;;7.99;80.12
75536;BME280;64119;52.070;20.804;2023-05-07T09:15:50;101356.09;;;7.99;79.81
75536;BME280;64119;52.070;20.804;2023-05-07T09:18:19;101361.52;;;8.01;79.79
75536;BME280;64119;52.070;20.804;2023-05-07T09:20:47;101371.55;;;8.01;79.77
75536;BME280;64119;52.070;20.804;2023-05-07T09:23:16;101377.52;;;7.97;79.43
75536;BME280;64119;52.070;20.804;2023-05-07T09:25:44;101378.84;;;7.91;78.95
75536;BME280;64119;52.070;20.804;2023-05-07T09:28:20;101387.39;;;7.90;79.98
75536;BME280;64119;52.070;20.804;2023-05-07T09:30:47;101385.38;;;7.89;79.55
75536;BME280;64119;52.070;20.804;2023-05-07T09:33:15;101390.73;;;7.88;79.25
75536;BME280;64119;52.070;20.804;2023-05-07T09:35:51;101392.33;;;7.87;79.23
75536;BME280;64119;52.070;20.804;2023-05-07T09:38:21;101390.11;;;7.97;79.10
75536;BME280;64119;52.070;20.804;2023-05-07T09:41:11;101387.77;;;8.14;79.11
75536;BME280;64119;52.070;20.804;2023-05-07T09:43:44;101385.70;;;8.35;77.50
75536;BME280;64119;52.070;20.804;2023-05-07T09:46:14;101386.84;;;8.43;75.86
75536;BME280;64119;52.070;20.804;2023-05-07T09:48:48;101386.34;;;8.53;76.82
75536;BME280;64119;52.070;20.804;2023-05-07T09:53:45;101390.64;;;8.76;75.37
75536;BME280;64119;52.070;20.804;2023-05-07T09:56:14;101391.27;;;8.82;75.07
75536;BME280;64119;52.070;20.804;2023-05-07T09:58:43;101396.34;;;8.84;74.98
75536;BME280;64119;52.070;20.804;2023-05-07T10:01:12;101399.81;;;8.85;75.16
75536;BME280;64119;52.070;20.804;2023-05-07T10:03:41;101404.96;;;8.85;75.26
75536;BME280;64119;52.070;20.804;2023-05-07T10:06:10;101406.56;;;8.84;74.99
75536;BME280;64119;52.070;20.804;2023-05-07T10:08:40;101409.27;;;8.84;74.36
75536;BME280;64119;52.070;20.804;2023-05-07T10:11:09;101411.36;;;8.84;75.13
75536;BME280;64119;52.070;20.804;2023-05-07T10:13:37;101406.77;;;8.89;74.27
75536;BME280;64119;52.070;20.804;2023-05-07T10:16:07;101404.52;;;8.91;73.43
75536;BME280;64119;52.070;20.804;2023-05-07T10:18:41;101410.10;;;8.93;73.91
75536;BME280;64119;52.070;20.804;2023-05-07T10:21:18;101413.37;;;8.99;73.66
75536;BME280;64119;52.070;20.804;2023-05-07T10:23:59;101417.41;;;9.01;72.82
75536;BME280;64119;52.070;20.804;2023-05-07T10:26:31;101417.27;;;9.02;72.85
75536;BME280;64119;52.070;20.804;2023-05-07T10:29:07;101416.02;;;9.04;73.19
75536;BME280;64119;52.070;20.804;2023-05-07T10:34:23;101415.07;;;9.12;71.92
75536;BME280;64119;52.070;20.804;2023-05-07T10:36:54;101411.84;;;9.23;72.35
75536;BME280;64119;52.070;20.804;2023-05-07T10:39:23;101413.17;;;9.34;72.22
75536;BME280;64119;52.070;20.804;2023-05-07T10:41:52;101411.08;;;9.46;71.71
75536;BME280;64119;52.070;20.804;2023-05-07T10:44:27;101417.78;;;9.53;71.53
75536;BME280;64119;52.070;20.804;2023-05-07T10:47:11;101427.01;;;9.56;71.54
75536;BME280;64119;52.070;20.804;2023-05-07T10:52:23;101432.42;;;9.50;70.31
75536;BME280;64119;52.070;20.804;2023-05-07T10:57:50;101432.52;;;9.45;69.79
75536;BME280;64119;52.070;20.804;2023-05-07T11:03:05;101435.71;;;9.52;70.12
75536;BME280;64119;52.070;20.804;2023-05-07T11:05:41;101437.92;;;9.50;70.33
75536;BME280;64119;52.070;20.804;2023-05-07T11:08:17;101440.41;;;9.42;69.38
75536;BME280;64119;52.070;20.804;2023-05-07T11:11:12;101442.60;;;9.36;69.72
75536;BME280;64119;52.070;20.804;2023-05-07T11:13:49;101439.95;;;9.42;70.64
75536;BME280;64119;52.070;20.804;2023-05-07T11:16:40;101441.15;;;9.51;70.52
75536;BME280;64119;52.070;20.804;2023-05-07T11:19:47;101443.14;;;9.52;70.34
75536;BME280;64119;52.070;20.804;2023-05-07T11:25:06;101439.48;;;9.55;69.63
75536;BME280;64119;52.070;20.804;2023-05-07T11:27:34;101443.65;;;9.50;69.87
75536;BME280;64119;52.070;20.804;2023-05-07T11:30:03;101449.70;;;9.52;69.75
75536;BME280;64119;52.070;20.804;2023-05-07T11:32:32;101448.90;;;9.47;69.18
75536;BME280;64119;52.070;20.804;2023-05-07T11:35:00;101450.59;;;9.52;69.23
75536;BME280;64119;52.070;20.804;2023-05-07T11:37:28;101453.20;;;9.52;69.80
75536;BME280;64119;52.070;20.804;2023-05-07T11:40:06;101457.86;;;9.65;69.70
75536;BME280;64119;52.070;20.804;2023-05-07T11:42:38;101458.46;;;9.71;69.13
75536;BME280;64119;52.070;20.804;2023-05-07T11:45:07;101457.84;;;9.71;67.95
75536;BME280;64119;52.070;20.804;2023-05-07T11:47:36;101459.57;;;9.72;68.71
75536;BME280;64119;52.070;20.804;2023-05-07T11:50:06;101460.13;;;9.86;68.78
75536;BME280;64119;52.070;20.804;2023-05-07T11:52:35;101461.09;;;10.00;68.07
75536;BME280;64119;52.070;20.804;2023-05-07T11:55:03;101459.41;;;10.11;68.13
75536;BME280;64119;52.070;20.804;2023-05-07T11:57:33;101459.77;;;10.27;68.23
75536;BME280;64119;52.070;20.804;2023-05-07T12:00:01;101454.75;;;10.37;66.15
75536;BME280;64119;52.070;20.804;2023-05-07T12:02:41;101456.42;;;10.47;66.97
75536;BME280;64119;52.070;20.804;2023-05-07T12:05:10;101454.75;;;10.57;65.97
75536;BME280;64119;52.070;20.804;2023-05-07T12:07:38;101459.52;;;10.61;66.45
75536;BME280;64119;52.070;20.804;2023-05-07T12:10:06;101461.06;;;10.68;66.49
75536;BME280;64119;52.070;20.804;2023-05-07T12:12:41;101462.40;;;10.74;65.32
75536;BME280;64119;52.070;20.804;2023-05-07T12:15:16;101464.84;;;10.79;65.96
75536;BME280;64119;52.070;20.804;2023-05-07T12:17:44;101464.64;;;10.85;65.75
75536;BME280;64119;52.070;20.804;2023-05-07T12:20:12;101464.76;;;10.91;66.29
75536;BME280;64119;52.070;20.804;2023-05-07T12:22:41;101462.77;;;10.87;65.17
75536;BME280;64119;52.070;20.804;2023-05-07T12:25:09;101462.40;;;10.74;65.43
75536;BME280;64119;52.070;20.804;2023-05-07T12:27:38;101466.76;;;10.64;65.57
75536;BME280;64119;52.070;20.804;2023-05-07T12:30:09;101476.95;;;10.48;65.21
75536;BME280;64119;52.070;20.804;2023-05-07T12:32:37;101476.27;;;10.36;65.25
75536;BME280;64119;52.070;20.804;2023-05-07T12:35:06;101479.80;;;10.34;65.99
75536;BME280;64119;52.070;20.804;2023-05-07T12:37:35;101481.77;;;10.51;66.41
75536;BME280;64119;52.070;20.804;2023-05-07T12:40:09;101474.61;;;10.72;66.52
75536;BME280;64119;52.070;20.804;2023-05-07T12:42:40;101471.58;;;10.84;66.33
75536;BME280;64119;52.070;20.804;2023-05-07T12:47:37;101480.11;;;10.58;64.99
75536;BME280;64119;52.070;20.804;2023-05-07T12:50:06;101486.86;;;10.46;65.88
75536;BME280;64119;52.070;20.804;2023-05-07T12:52:34;101484.90;;;10.38;65.74
75536;BME280;64119;52.070;20.804;2023-05-07T12:55:07;101490.36;;;10.27;65.46
75536;BME280;64119;52.070;20.804;2023-05-07T12:57:41;101492.02;;;10.24;66.42
75536;BME280;64119;52.070;20.804;2023-05-07T13:00:09;101488.08;;;10.22;66.67
75536;BME280;64119;52.070;20.804;2023-05-07T13:02:39;101493.92;;;10.33;66.87
75536;BME280;64119;52.070;20.804;2023-05-07T13:05:08;101488.61;;;10.52;66.35
75536;BME280;64119;52.070;20.804;2023-05-07T13:07:37;101486.46;;;10.69;64.92
75536;BME280;64119;52.070;20.804;2023-05-07T13:10:08;101482.70;;;10.74;63.98
75536;BME280;64119;52.070;20.804;2023-05-07T13:12:36;101481.22;;;10.94;65.24
75536;BME280;64119;52.070;20.804;2023-05-07T13:15:04;101479.41;;;11.08;64.54
75536;BME280;64119;52.070;20.804;2023-05-07T13:17:32;101474.08;;;11.05;62.52
75536;BME280;64119;52.070;20.804;2023-05-07T13:20:00;101478.20;;;11.20;62.72
75536;BME280;64119;52.070;20.804;2023-05-07T13:22:28;101473.67;;;11.13;62.08